Time;durP1;ratioP1;P1;durP2;ratioP2;P2;SDS_P1;SDS_P2;PMS_P1;PMS_P2;Temp;Humidity;BMP_temperature;BMP_pressure;BME280_temperature;BME280_humidity;BME280_pressure;Samples;Min_cycle;Max_cycle;Signal;HPM_P1;HPM_P2
2022/04/23 00:00:19;;;;;;;;;28.00;24.75;;;;;;;;5056810;28;45394;-73
2022/04/23 00:02:45;;;;;;;;;28.75;26.00;;;;;;;;5055061;28;46470;-73
2022/04/23 00:05:10;;;;;;;;;25.50;23.75;;;;;;;;5055589;28;45430;-73
2022/04/23 00:07:35;;;;;;;;;30.25;25.50;;;;;;;;5055505;28;45534;-73
2022/04/23 00:10:01;;;;;;;;;22.25;21.50;;;;;;;;5055533;28;45329;-73
2022/04/23 00:12:26;;;;;;;;;22.75;18.75;;;;;;;;5056941;28;46042;-73
2022/04/23 00:14:53;;;;;;;;;28.75;25.00;;;;;;;;5055317;28;45538;-73
2022/04/23 00:17:19;;;;;;;;;24.25;22.25;;;;;;;;5055292;28;45370;-73
2022/04/23 00:19:46;;;;;;;;;23.50;23.50;;;;;;;;5055695;28;45551;-73
2022/04/23 00:22:12;;;;;;;;;26.50;24.50;;;;;;;;5055687;28;46199;-73
2022/04/23 00:24:37;;;;;;;;;20.00;20.00;;;;;;;;5057644;28;45601;-73
2022/04/23 00:27:03;;;;;;;;;25.50;23.25;;;;;;;;5041531;28;45227;-73
2022/04/23 00:29:29;;;;;;;;;30.50;27.25;;;;;;;;5054824;28;45615;-73
2022/04/23 00:31:54;;;;;;;;;32.00;28.75;;;;;;;;5054154;28;45485;-73
2022/04/23 00:34:19;;;;;;;;;27.50;23.75;;;;;;;;5055221;28;45476;-73
2022/04/23 00:36:44;;;;;;;;;28.50;27.25;;;;;;;;5057630;28;45245;-73
2022/04/23 00:39:09;;;;;;;;;31.75;25.75;;;;;;;;5055933;28;45310;-72
2022/04/23 00:41:45;;;;;;;;;23.50;21.50;;;;;;;;5054581;28;47241;-73
2022/04/23 00:44:10;;;;;;;;;22.00;20.75;;;;;;;;5054610;28;45529;-73
2022/04/23 00:46:36;;;;;;;;;31.25;29.50;;;;;;;;5054973;28;45414;-73
2022/04/23 00:49:03;;;;;;;;;33.25;29.25;;;;;;;;5055436;28;45435;-73
2022/04/23 00:51:29;;;;;;;;;30.75;25.75;;;;;;;;5057238;28;47216;-72
2022/04/23 00:53:54;;;;;;;;;22.50;20.00;;;;;;;;5054875;28;45438;-73
2022/04/23 00:56:20;;;;;;;;;27.00;24.25;;;;;;;;5054000;28;45534;-73
2022/04/23 00:58:46;;;;;;;;;22.00;20.50;;;;;;;;5054913;28;45445;-73
2022/04/23 01:01:11;;;;;;;;;29.25;25.75;;;;;;;;5054942;28;46956;-73
2022/04/23 01:03:36;;;;;;;;;28.75;25.25;;;;;;;;5056814;28;45399;-73
2022/04/23 01:06:02;;;;;;;;;30.50;26.50;;;;;;;;5055096;28;45299;-73
2022/04/23 01:08:27;;;;;;;;;35.25;25.75;;;;;;;;5054797;28;45538;-73
2022/04/23 01:10:53;;;;;;;;;33.00;27.50;;;;;;;;5054444;28;45284;-73
2022/04/23 01:13:18;;;;;;;;;27.75;25.50;;;;;;;;5054188;28;45384;-73
2022/04/23 01:15:55;;;;;;;;;28.25;25.75;;;;;;;;5056283;28;45510;-73
2022/04/23 01:18:21;;;;;;;;;26.75;25.25;;;;;;;;5055435;28;45504;-73
2022/04/23 01:20:47;;;;;;;;;30.50;28.00;;;;;;;;5054342;28;45491;-72
2022/04/23 01:23:12;;;;;;;;;32.00;26.25;;;;;;;;5054441;28;45313;-73
2022/04/23 01:25:37;;;;;;;;;28.25;27.25;;;;;;;;5054927;28;45516;-72
2022/04/23 01:28:03;;;;;;;;;28.00;26.25;;;;;;;;5054475;28;45411;-71
2022/04/23 01:30:28;;;;;;;;;30.50;29.50;;;;;;;;5055663;28;46577;-73
2022/04/23 01:32:54;;;;;;;;;27.00;25.75;;;;;;;;5054408;28;45439;-72
2022/04/23 01:35:19;;;;;;;;;30.25;28.25;;;;;;;;5054442;28;45458;-72
2022/04/23 01:37:45;;;;;;;;;30.50;28.75;;;;;;;;5054395;28;45348;-72
2022/04/23 01:40:11;;;;;;;;;30.75;22.75;;;;;;;;5054373;28;46028;-72
2022/04/23 01:42:37;;;;;;;;;28.25;26.25;;;;;;;;5056116;28;45348;-72
2022/04/23 01:45:02;;;;;;;;;35.25;25.50;;;;;;;;5053584;28;45352;-73
2022/04/23 01:47:27;;;;;;;;;34.25;27.75;;;;;;;;5053800;28;45457;-72
2022/04/23 01:49:52;;;;;;;;;30.75;25.75;;;;;;;;5053670;28;45995;-72
2022/04/23 01:52:18;;;;;;;;;28.25;25.50;;;;;;;;5054143;28;45474;-72
2022/04/23 01:54:43;;;;;;;;;32.00;27.50;;;;;;;;5056096;28;45530;-72
2022/04/23 01:57:08;;;;;;;;;32.25;26.50;;;;;;;;5054267;28;45616;-72
2022/04/23 01:59:33;;;;;;;;;31.75;25.50;;;;;;;;5053944;28;45465;-72
2022/04/23 02:01:59;;;;;;;;;30.00;26.75;;;;;;;;5054236;28;45303;-72
2022/04/23 02:04:24;;;;;;;;;33.00;28.25;;;;;;;;5053764;28;45347;-73
2022/04/23 02:06:49;;;;;;;;;25.50;25.50;;;;;;;;5055347;28;45502;-73
2022/04/23 02:09:15;;;;;;;;;33.00;27.25;;;;;;;;5054116;28;46970;-72
2022/04/23 02:11:40;;;;;;;;;32.00;26.75;;;;;;;;5052489;28;45197;-72
2022/04/23 02:14:05;;;;;;;;;28.25;24.25;;;;;;;;5053644;28;45386;-72
2022/04/23 02:16:31;;;;;;;;;30.00;25.25;;;;;;;;5053654;28;45433;-72
2022/04/23 02:19:01;;;;;;;;;27.00;26.25;;;;;;;;5054478;28;47234;-73
2022/04/23 02:21:26;;;;;;;;;26.50;25.50;;;;;;;;5053758;28;45314;-72
2022/04/23 02:23:53;;;;;;;;;31.75;29.00;;;;;;;;5052999;28;45578;-72
2022/04/23 02:26:20;;;;;;;;;34.00;27.75;;;;;;;;5053582;28;45465;-72
2022/04/23 02:28:46;;;;;;;;;29.00;27.25;;;;;;;;5052896;28;46981;-72
2022/04/23 02:31:12;;;;;;;;;37.75;27.75;;;;;;;;5053876;28;45399;-72
2022/04/23 02:33:37;;;;;;;;;34.75;29.00;;;;;;;;5055665;28;45771;-73
2022/04/23 02:36:02;;;;;;;;;29.25;26.00;;;;;;;;5053952;28;45525;-73
2022/04/23 02:38:28;;;;;;;;;32.00;29.25;;;;;;;;5053201;28;47476;-73
2022/04/23 02:40:53;;;;;;;;;28.00;26.25;;;;;;;;5053515;28;45594;-73
2022/04/23 02:43:19;;;;;;;;;30.00;25.25;;;;;;;;5052814;28;45359;-73
2022/04/23 02:45:45;;;;;;;;;30.75;27.50;;;;;;;;5055451;28;45494;-73
2022/04/23 02:48:11;;;;;;;;;29.50;28.00;;;;;;;;5051595;28;46988;-73
2022/04/23 02:50:39;;;;;;;;;29.50;27.25;;;;;;;;5053223;28;45540;-73
2022/04/23 02:53:05;;;;;;;;;26.00;25.00;;;;;;;;5038363;28;45701;-73
2022/04/23 02:55:33;;;;;;;;;28.50;26.25;;;;;;;;5053084;28;45283;-72
2022/04/23 02:58:02;;;;;;;;;28.25;23.00;;;;;;;;5053233;28;46293;-71
2022/04/23 03:00:28;;;;;;;;;32.50;28.00;;;;;;;;5053254;28;45370;-72
2022/04/23 03:02:53;;;;;;;;;30.50;26.75;;;;;;;;5053056;28;45360;-72
2022/04/23 03:05:18;;;;;;;;;33.00;26.75;;;;;;;;5051777;28;45651;-73
2022/04/23 03:07:45;;;;;;;;;27.25;26.00;;;;;;;;5053611;28;45474;-72
2022/04/23 03:10:11;;;;;;;;;31.25;28.00;;;;;;;;5053016;28;45482;-74
2022/04/23 03:12:38;;;;;;;;;28.00;24.75;;;;;;;;5054517;28;45318;-73
2022/04/23 03:15:04;;;;;;;;;31.75;25.75;;;;;;;;5052579;28;45516;-73
2022/04/23 03:17:31;;;;;;;;;32.25;31.25;;;;;;;;5052732;28;47403;-73
2022/04/23 03:19:56;;;;;;;;;25.00;21.75;;;;;;;;5052877;28;45499;-73
2022/04/23 03:22:21;;;;;;;;;28.50;26.00;;;;;;;;5052799;28;45415;-73
2022/04/23 03:24:47;;;;;;;;;28.00;23.00;;;;;;;;5053331;28;45408;-73
2022/04/23 03:27:12;;;;;;;;;30.50;25.75;;;;;;;;5052733;28;45415;-73
2022/04/23 03:29:38;;;;;;;;;32.25;24.50;;;;;;;;5052763;28;45590;-72
2022/04/23 03:32:03;;;;;;;;;31.50;25.25;;;;;;;;5053055;28;45264;-73
2022/04/23 03:34:28;;;;;;;;;27.50;23.25;;;;;;;;5052907;28;45403;-73
2022/04/23 03:36:54;;;;;;;;;30.00;28.50;;;;;;;;5053468;28;45624;-73
2022/04/23 03:39:19;;;;;;;;;31.00;21.75;;;;;;;;5052880;28;45443;-73
2022/04/23 03:41:44;;;;;;;;;25.00;21.50;;;;;;;;5052863;28;45474;-73
2022/04/23 03:44:09;;;;;;;;;24.75;22.75;;;;;;;;5052462;28;45591;-73
2022/04/23 03:46:35;;;;;;;;;29.25;26.00;;;;;;;;5052277;28;46190;-72
2022/04/23 03:49:01;;;;;;;;;30.00;27.50;;;;;;;;5052517;28;45242;-75
2022/04/23 03:51:26;;;;;;;;;29.00;24.75;;;;;;;;5054835;28;45245;-73
2022/04/23 03:53:51;;;;;;;;;29.00;27.25;;;;;;;;5052456;28;45497;-73
2022/04/23 03:56:16;;;;;;;;;27.75;22.00;;;;;;;;5052307;28;46166;-73
2022/04/23 03:58:42;;;;;;;;;26.00;24.25;;;;;;;;5050053;28;45552;-73
2022/04/23 04:01:08;;;;;;;;;27.00;25.00;;;;;;;;5050486;28;47795;-73
2022/04/23 04:03:34;;;;;;;;;25.50;24.50;;;;;;;;5054111;28;45484;-72
2022/04/23 04:06:00;;;;;;;;;26.25;24.00;;;;;;;;5052005;28;45744;-73
2022/04/23 04:08:25;;;;;;;;;31.25;28.00;;;;;;;;5051333;28;45560;-73
2022/04/23 04:10:50;;;;;;;;;26.75;26.75;;;;;;;;5051425;28;45468;-73
2022/04/23 04:13:15;;;;;;;;;25.00;24.00;;;;;;;;5051803;28;45265;-74
2022/04/23 04:15:43;;;;;;;;;29.00;27.00;;;;;;;;5053028;28;45504;-73
2022/04/23 04:18:09;;;;;;;;;33.75;29.25;;;;;;;;5055125;28;45357;-72
2022/04/23 04:20:35;;;;;;;;;28.50;26.25;;;;;;;;5054860;28;45514;-72
2022/04/23 04:23:01;;;;;;;;;29.00;28.00;;;;;;;;5047997;28;45782;-73
2022/04/23 04:25:26;;;;;;;;;27.50;26.25;;;;;;;;5036999;28;46532;-73
2022/04/23 04:27:52;;;;;;;;;26.25;24.25;;;;;;;;5056340;28;45891;-73
2022/04/23 04:30:17;;;;;;;;;28.75;25.75;;;;;;;;5055992;28;45362;-72
2022/04/23 04:32:42;;;;;;;;;27.50;24.00;;;;;;;;5054948;28;45359;-73
2022/04/23 04:35:09;;;;;;;;;29.00;23.25;;;;;;;;5054571;28;46745;-72
2022/04/23 04:37:34;;;;;;;;;26.50;25.25;;;;;;;;5054670;28;45368;-72
2022/04/23 04:40:00;;;;;;;;;32.25;28.25;;;;;;;;5054923;28;45368;-73
2022/04/23 04:42:25;;;;;;;;;29.25;27.00;;;;;;;;5054765;28;45541;-73
2022/04/23 04:44:50;;;;;;;;;29.00;28.00;;;;;;;;5055371;28;46042;-72
2022/04/23 04:47:16;;;;;;;;;23.50;22.75;;;;;;;;5054798;28;45479;-72
2022/04/23 04:49:42;;;;;;;;;28.25;27.00;;;;;;;;5054962;28;45573;-72
2022/04/23 04:52:07;;;;;;;;;28.75;27.50;;;;;;;;5054815;28;45541;-72
2022/04/23 04:54:32;;;;;;;;;29.00;28.00;;;;;;;;5056897;28;46959;-72
2022/04/23 04:56:58;;;;;;;;;23.00;23.00;;;;;;;;5054732;28;45290;-72
2022/04/23 04:59:24;;;;;;;;;26.50;25.25;;;;;;;;5054254;28;45622;-72
2022/04/23 05:01:50;;;;;;;;;25.25;23.25;;;;;;;;5036512;28;45607;-72
2022/04/23 05:04:15;;;;;;;;;31.50;28.00;;;;;;;;5055406;28;47239;-72
2022/04/23 05:06:41;;;;;;;;;27.25;25.00;;;;;;;;5052346;28;45387;-72
2022/04/23 05:09:06;;;;;;;;;24.00;23.00;;;;;;;;5054361;28;45348;-73
2022/04/23 05:11:32;;;;;;;;;27.00;25.75;;;;;;;;5054792;28;45289;-71
2022/04/23 05:13:57;;;;;;;;;22.25;18.00;;;;;;;;5053987;28;45487;-72
2022/04/23 05:16:23;;;;;;;;;32.50;29.00;;;;;;;;5054427;28;45424;-72
2022/04/23 05:18:48;;;;;;;;;34.00;30.00;;;;;;;;5056434;28;45340;-72
2022/04/23 05:21:13;;;;;;;;;27.75;25.75;;;;;;;;5055061;28;45284;-72
2022/04/23 05:23:38;;;;;;;;;31.25;29.50;;;;;;;;5054155;28;45330;-73
2022/04/23 05:26:04;;;;;;;;;26.25;25.00;;;;;;;;5054103;28;45316;-73
2022/04/23 05:28:30;;;;;;;;;34.00;30.00;;;;;;;;5054105;28;45467;-73
2022/04/23 05:30:55;;;;;;;;;29.75;27.00;;;;;;;;5054747;28;45383;-73
2022/04/23 05:33:21;;;;;;;;;25.25;25.00;;;;;;;;5054610;28;45513;-73
2022/04/23 05:35:46;;;;;;;;;28.00;25.00;;;;;;;;5053577;28;45463;-73
2022/04/23 05:38:11;;;;;;;;;25.75;24.75;;;;;;;;5054323;28;45418;-74
2022/04/23 05:40:37;;;;;;;;;27.00;24.00;;;;;;;;5048494;28;45473;-73
2022/04/23 05:43:02;;;;;;;;;21.00;20.50;;;;;;;;5053812;28;45839;-73
2022/04/23 05:45:28;;;;;;;;;24.75;23.50;;;;;;;;5055833;28;45390;-73
2022/04/23 05:47:53;;;;;;;;;23.75;21.75;;;;;;;;5053787;28;45377;-73
2022/04/23 05:50:19;;;;;;;;;32.75;29.50;;;;;;;;5051634;28;45485;-74
2022/04/23 05:52:44;;;;;;;;;33.00;30.50;;;;;;;;5053315;28;45682;-73
2022/04/23 05:55:10;;;;;;;;;20.00;19.00;;;;;;;;5053598;28;45291;-73
2022/04/23 05:57:35;;;;;;;;;28.75;27.25;;;;;;;;5055545;28;45424;-73
2022/04/23 06:00:01;;;;;;;;;29.25;27.25;;;;;;;;5052866;28;45581;-73
2022/04/23 06:02:26;;;;;;;;;32.00;28.75;;;;;;;;5051833;28;45337;-74
2022/04/23 06:04:52;;;;;;;;;28.25;27.75;;;;;;;;5052322;28;45434;-74
2022/04/23 06:07:17;;;;;;;;;26.75;25.00;;;;;;;;5053742;28;45383;-73
2022/04/23 06:09:43;;;;;;;;;30.75;28.00;;;;;;;;5055003;28;45378;-73
2022/04/23 06:12:08;;;;;;;;;27.75;26.75;;;;;;;;5052580;28;45492;-74
2022/04/23 06:14:34;;;;;;;;;33.50;31.00;;;;;;;;5053235;28;45474;-73
2022/04/23 06:16:59;;;;;;;;;29.25;27.25;;;;;;;;5053594;28;45950;-74
2022/04/23 06:19:24;;;;;;;;;27.50;24.50;;;;;;;;5053153;28;45458;-74
2022/04/23 06:21:50;;;;;;;;;34.25;29.75;;;;;;;;5054432;28;49328;-75
2022/04/23 06:24:18;;;;;;;;;31.00;26.75;;;;;;;;5053601;28;45317;-74
2022/04/23 06:26:43;;;;;;;;;31.00;29.25;;;;;;;;5051339;28;45524;-76
2022/04/23 06:29:08;;;;;;;;;29.50;26.50;;;;;;;;5051666;28;45590;-75
2022/04/23 06:31:33;;;;;;;;;28.75;26.50;;;;;;;;5056484;28;46142;-75
2022/04/23 06:33:59;;;;;;;;;26.50;24.50;;;;;;;;5056335;28;45310;-76
2022/04/23 06:36:24;;;;;;;;;30.75;27.75;;;;;;;;5057022;28;45478;-76
2022/04/23 06:38:49;;;;;;;;;31.75;30.00;;;;;;;;5053586;28;45300;-75
2022/04/23 06:41:15;;;;;;;;;27.25;27.25;;;;;;;;5057378;28;45328;-76
2022/04/23 06:43:40;;;;;;;;;35.25;28.25;;;;;;;;5056818;28;45417;-76
2022/04/23 06:46:05;;;;;;;;;31.50;27.50;;;;;;;;5057022;28;45402;-76
2022/04/23 06:48:30;;;;;;;;;33.00;31.00;;;;;;;;5056217;28;45471;-76
2022/04/23 06:50:55;;;;;;;;;28.00;26.50;;;;;;;;5053995;28;45562;-77
2022/04/23 06:53:21;;;;;;;;;29.25;29.00;;;;;;;;5057220;28;45275;-76
2022/04/23 06:55:46;;;;;;;;;33.00;28.75;;;;;;;;5057530;28;45222;-76
2022/04/23 06:58:11;;;;;;;;;28.25;27.50;;;;;;;;5056973;28;45427;-76
2022/04/23 07:00:41;;;;;;;;;31.25;28.25;;;;;;;;5056459;27;47323;-75
2022/04/23 07:03:07;;;;;;;;;29.50;26.50;;;;;;;;5055120;28;45570;-76
2022/04/23 07:05:32;;;;;;;;;29.00;28.75;;;;;;;;5054370;28;45556;-74
2022/04/23 07:07:58;;;;;;;;;29.50;27.50;;;;;;;;5059027;28;45513;-73
2022/04/23 07:10:25;;;;;;;;;28.50;27.50;;;;;;;;5038163;28;47127;-73
2022/04/23 07:12:52;;;;;;;;;29.25;26.50;;;;;;;;5052214;28;45524;-74
2022/04/23 07:15:17;;;;;;;;;28.25;27.75;;;;;;;;5052934;28;45486;-74
2022/04/23 07:17:42;;;;;;;;;32.75;30.75;;;;;;;;5052452;28;45497;-74
2022/04/23 07:20:08;;;;;;;;;28.75;26.75;;;;;;;;5054513;28;45793;-72
2022/04/23 07:22:34;;;;;;;;;34.50;30.25;;;;;;;;5051934;28;45395;-74
2022/04/23 07:24:59;;;;;;;;;29.50;28.00;;;;;;;;5052533;28;45505;-75
2022/04/23 07:27:25;;;;;;;;;30.25;28.25;;;;;;;;5052087;28;45390;-74
2022/04/23 07:29:51;;;;;;;;;30.50;29.25;;;;;;;;5052610;28;45679;-74
2022/04/23 07:32:19;;;;;;;;;35.00;31.25;;;;;;;;5053485;28;45445;-72
2022/04/23 07:37:29;;;;;;;;;33.75;29.50;;;;;;;;5052003;28;45390;-74
2022/04/23 07:39:58;;;;;;;;;32.75;30.25;;;;;;;;5051319;28;46523;-73
2022/04/23 07:42:23;;;;;;;;;28.25;27.75;;;;;;;;5051215;28;45456;-73
2022/04/23 07:44:48;;;;;;;;;32.00;27.25;;;;;;;;5051629;28;45438;-72
2022/04/23 07:47:13;;;;;;;;;29.25;27.00;;;;;;;;5053130;28;45400;-73
2022/04/23 07:49:39;;;;;;;;;29.75;27.25;;;;;;;;5051377;28;46947;-73
2022/04/23 07:52:04;;;;;;;;;30.75;26.25;;;;;;;;5053265;28;45443;-73
2022/04/23 07:54:30;;;;;;;;;35.50;30.75;;;;;;;;5055615;28;45697;-73
2022/04/23 07:56:55;;;;;;;;;32.25;26.75;;;;;;;;5055678;28;45315;-73
2022/04/23 07:59:21;;;;;;;;;36.25;31.75;;;;;;;;5055775;28;46161;-73
2022/04/23 08:01:46;;;;;;;;;30.50;28.00;;;;;;;;5055445;28;45395;-73
2022/04/23 08:04:12;;;;;;;;;31.75;29.50;;;;;;;;5055218;28;45423;-74
2022/04/23 08:06:37;;;;;;;;;60.25;47.25;;;;;;;;5054703;28;45316;-73
2022/04/23 08:09:02;;;;;;;;;27.50;23.00;;;;;;;;5054810;28;46725;-73
2022/04/23 08:11:27;;;;;;;;;33.75;30.00;;;;;;;;5055314;28;45371;-73
2022/04/23 08:13:53;;;;;;;;;31.75;30.50;;;;;;;;5056729;28;45399;-74
2022/04/23 08:16:19;;;;;;;;;38.00;32.00;;;;;;;;5054123;28;45627;-74
2022/04/23 08:18:44;;;;;;;;;27.25;25.25;;;;;;;;5054175;28;46706;-74
2022/04/23 08:21:10;;;;;;;;;30.00;30.00;;;;;;;;5054754;28;45256;-73
2022/04/23 08:23:35;;;;;;;;;31.75;30.00;;;;;;;;5055051;28;45383;-73
2022/04/23 08:26:02;;;;;;;;;28.75;27.00;;;;;;;;5056686;28;45498;-72
2022/04/23 08:31:12;;;;;;;;;29.25;25.25;;;;;;;;5053845;28;45455;-74
2022/04/23 08:36:22;;;;;;;;;33.25;29.00;;;;;;;;5054455;28;45473;-73
2022/04/23 08:38:47;;;;;;;;;35.75;32.50;;;;;;;;5054152;28;45496;-74
2022/04/23 08:41:12;;;;;;;;;39.75;35.50;;;;;;;;5056690;28;45412;-70
2022/04/23 08:43:37;;;;;;;;;31.00;26.75;;;;;;;;5054405;28;45242;-71
2022/04/23 08:46:03;;;;;;;;;31.75;28.25;;;;;;;;5053544;28;45606;-70
2022/04/23 08:48:33;;;;;;;;;30.00;27.25;;;;;;;;5053651;28;46512;-70
2022/04/23 08:51:00;;;;;;;;;34.00;28.25;;;;;;;;5053971;28;45427;-71
2022/04/23 08:53:27;;;;;;;;;30.50;29.50;;;;;;;;5055084;28;45310;-71
2022/04/23 08:55:53;;;;;;;;;36.00;30.75;;;;;;;;5055721;28;45554;-69
2022/04/23 08:58:19;;;;;;;;;35.75;31.00;;;;;;;;5053394;28;47257;-69
2022/04/23 09:00:44;;;;;;;;;30.00;28.50;;;;;;;;5053513;28;45490;-69
2022/04/23 09:03:13;;;;;;;;;23.25;22.50;;;;;;;;5034243;28;45546;-70
2022/04/23 09:05:39;;;;;;;;;28.75;27.50;;;;;;;;5054342;28;45518;-70
2022/04/23 09:08:05;;;;;;;;;34.25;30.50;;;;;;;;5055885;28;47252;-70
2022/04/23 09:10:44;;;;;;;;;32.75;30.25;;;;;;;;5053988;28;45443;-69
2022/04/23 09:13:10;;;;;;;;;25.50;23.00;;;;;;;;5053938;28;45493;-70
2022/04/23 09:24:06;;;;;;;;;30.75;27.50;;;;;;;;5038515;28;45467;-70
2022/04/23 09:26:31;;;;;;;;;32.00;27.50;;;;;;;;5053215;28;45241;-69
2022/04/23 09:28:57;;;;;;;;;32.75;29.75;;;;;;;;5040126;28;46356;-69
2022/04/23 09:31:23;;;;;;;;;32.50;30.75;;;;;;;;5038966;28;45505;-70
2022/04/23 09:33:51;;;;;;;;;38.00;33.25;;;;;;;;5053138;28;45581;-70
2022/04/23 09:36:16;;;;;;;;;35.50;34.50;;;;;;;;5053171;28;45577;-70
2022/04/23 09:38:41;;;;;;;;;34.50;29.75;;;;;;;;5053577;28;47037;-70
2022/04/23 09:41:16;;;;;;;;;33.50;28.75;;;;;;;;5055064;28;45514;-69
2022/04/23 09:43:41;;;;;;;;;29.00;28.00;;;;;;;;5051740;28;45398;-69
2022/04/23 09:46:10;;;;;;;;;30.25;30.25;;;;;;;;5053175;28;45542;-69
2022/04/23 09:48:38;;;;;;;;;30.25;27.75;;;;;;;;5052204;28;47413;-70
2022/04/23 09:51:03;;;;;;;;;34.50;28.75;;;;;;;;5052443;28;45462;-72
2022/04/23 09:53:29;;;;;;;;;35.75;30.25;;;;;;;;5053118;28;45378;-70
2022/04/23 09:56:04;;;;;;;;;31.25;28.00;;;;;;;;5054484;28;45467;-69
2022/04/23 09:58:29;;;;;;;;;37.75;31.75;;;;;;;;5052242;28;46579;-69
2022/04/23 10:00:56;;;;;;;;;33.50;24.50;;;;;;;;5052305;28;45498;-70
2022/04/23 10:03:26;;;;;;;;;31.75;27.75;;;;;;;;5052990;28;45438;-70
2022/04/23 10:05:51;;;;;;;;;30.75;25.00;;;;;;;;5053235;28;45300;-70
2022/04/23 10:08:17;;;;;;;;;29.00;27.50;;;;;;;;5054842;28;46487;-71
2022/04/23 10:10:44;;;;;;;;;34.75;31.00;;;;;;;;5052697;28;45235;-71
2022/04/23 10:13:09;;;;;;;;;33.75;32.75;;;;;;;;5052624;28;45479;-71
2022/04/23 10:15:37;;;;;;;;;35.75;31.00;;;;;;;;5052859;28;45452;-70
2022/04/23 10:18:03;;;;;;;;;41.25;36.75;;;;;;;;5053103;28;45457;-70
2022/04/23 10:20:30;;;;;;;;;30.75;26.75;;;;;;;;5052956;28;45382;-71
2022/04/23 10:23:09;;;;;;;;;39.75;29.75;;;;;;;;5054304;28;45474;-71
2022/04/23 10:25:45;;;;;;;;;33.75;28.75;;;;;;;;5052237;28;45361;-70
2022/04/23 10:28:11;;;;;;;;;30.00;28.25;;;;;;;;5051880;28;46269;-70
2022/04/23 10:30:36;;;;;;;;;28.25;27.25;;;;;;;;5051962;28;45435;-71
2022/04/23 10:33:20;;;;;;;;;35.50;30.00;;;;;;;;5052371;28;45431;-71
2022/04/23 10:36:00;;;;;;;;;29.00;25.25;;;;;;;;5017284;28;45658;-71
2022/04/23 10:38:26;;;;;;;;;27.75;26.00;;;;;;;;5063784;27;47351;-69
2022/04/23 10:40:55;;;;;;;;;26.50;25.50;;;;;;;;5053395;28;45757;-69
2022/04/23 10:43:20;;;;;;;;;25.50;23.50;;;;;;;;5052210;28;45456;-69
2022/04/23 10:45:48;;;;;;;;;32.25;29.25;;;;;;;;5052097;28;45336;-68
2022/04/23 10:48:25;;;;;;;;;34.50;28.25;;;;;;;;5051621;28;46680;-69
2022/04/23 10:51:06;;;;;;;;;39.75;35.75;;;;;;;;5036293;28;45447;-69
2022/04/23 10:53:37;;;;;;;;;30.50;30.25;;;;;;;;5052005;28;45575;-69
2022/04/23 10:56:06;;;;;;;;;30.75;27.25;;;;;;;;5053789;28;45466;-68
2022/04/23 10:58:32;;;;;;;;;30.00;27.50;;;;;;;;5037912;28;46455;-69
2022/04/23 11:01:16;;;;;;;;;25.25;25.25;;;;;;;;5051601;28;45518;-68
2022/04/23 11:03:43;;;;;;;;;26.25;21.00;;;;;;;;5052187;28;45386;-68
2022/04/23 11:12:16;;;;;;;;;20.75;20.00;;;;;;;;5038166;28;45522;-69
2022/04/23 11:14:46;;;;;;;;;19.00;17.75;;;;;;;;5052142;28;45381;-69
2022/04/23 11:17:14;;;;;;;;;29.75;26.50;;;;;;;;5053269;28;45608;-69
2022/04/23 11:19:40;;;;;;;;;22.75;21.50;;;;;;;;5051230;28;46371;-68
2022/04/23 11:22:05;;;;;;;;;23.00;23.00;;;;;;;;5049727;28;45730;-72
2022/04/23 11:24:30;;;;;;;;;17.75;17.75;;;;;;;;5048044;28;45427;-73
2022/04/23 11:26:56;;;;;;;;;19.00;17.00;;;;;;;;5049878;28;45269;-72
2022/04/23 11:29:21;;;;;;;;;23.75;18.00;;;;;;;;5052605;28;46123;-73
2022/04/23 11:31:53;;;;;;;;;21.00;17.75;;;;;;;;5045951;28;45541;-72
2022/04/23 11:34:18;;;;;;;;;20.00;17.00;;;;;;;;5047269;28;45430;-72
2022/04/23 11:36:43;;;;;;;;;24.25;23.00;;;;;;;;5050843;28;45386;-73
2022/04/23 11:39:09;;;;;;;;;21.75;18.00;;;;;;;;5060068;28;46369;-73
2022/04/23 11:41:39;;;;;;;;;16.50;16.50;;;;;;;;5051889;28;45316;-72
2022/04/23 11:44:10;;;;;;;;;11.25;10.00;;;;;;;;5065785;28;45321;-73
2022/04/23 11:46:43;;;;;;;;;13.00;13.00;;;;;;;;5052115;28;45481;-73
2022/04/23 11:49:08;;;;;;;;;15.00;14.50;;;;;;;;5051393;28;47439;-72
2022/04/23 11:51:33;;;;;;;;;15.00;14.75;;;;;;;;5051024;28;45680;-73
2022/04/23 11:53:59;;;;;;;;;14.75;12.25;;;;;;;;5051649;28;45407;-72
2022/04/23 11:56:25;;;;;;;;;12.50;12.50;;;;;;;;5065003;28;45417;-72
2022/04/23 11:58:52;;;;;;;;;12.25;11.75;;;;;;;;5059600;28;46658;-72
2022/04/23 12:01:17;;;;;;;;;15.00;14.50;;;;;;;;5049538;28;45391;-71
2022/04/23 12:03:51;;;;;;;;;16.00;14.50;;;;;;;;5051746;28;46325;-73
2022/04/23 12:06:16;;;;;;;;;14.00;12.75;;;;;;;;5034555;28;45631;-72
2022/04/23 12:08:42;;;;;;;;;11.75;11.75;;;;;;;;5050868;28;47160;-72
2022/04/23 12:11:23;;;;;;;;;10.50;9.50;;;;;;;;5053385;28;45330;-73
2022/04/23 12:13:48;;;;;;;;;13.75;13.00;;;;;;;;5051142;28;45357;-70
2022/04/23 12:16:32;;;;;;;;;13.50;11.00;;;;;;;;5051568;28;45500;-69
2022/04/23 12:18:58;;;;;;;;;11.00;11.00;;;;;;;;5051278;27;46888;-72
2022/04/23 12:21:24;;;;;;;;;12.75;10.00;;;;;;;;5048896;28;45544;-73
2022/04/23 12:23:50;;;;;;;;;17.25;15.25;;;;;;;;5053057;28;45467;-73
2022/04/23 12:26:19;;;;;;;;;13.75;13.75;;;;;;;;5053376;28;45304;-72
2022/04/23 12:42:23;;;;;;;;;15.75;14.75;;;;;;;;5054009;28;45402;-72
2022/04/23 12:44:51;;;;;;;;;10.00;10.00;;;;;;;;5054354;28;45290;-73
2022/04/23 12:47:26;;;;;;;;;11.50;9.75;;;;;;;;5061180;28;45389;-72
2022/04/23 12:49:54;;;;;;;;;12.25;11.25;;;;;;;;5054279;28;47251;-72
2022/04/23 12:52:21;;;;;;;;;19.25;18.25;;;;;;;;5053513;28;45427;-70
2022/04/23 12:55:05;;;;;;;;;13.00;12.50;;;;;;;;5054072;28;45365;-72
2022/04/23 12:57:31;;;;;;;;;12.25;12.25;;;;;;;;5054035;28;45304;-70
2022/04/23 12:59:56;;;;;;;;;12.50;12.00;;;;;;;;5054085;28;46616;-72
2022/04/23 13:02:21;;;;;;;;;18.50;18.50;;;;;;;;5040401;28;45345;-76
2022/04/23 13:04:46;;;;;;;;;8.50;8.25;;;;;;;;5052624;28;45653;-76
2022/04/23 13:09:55;;;;;;;;;10.25;10.25;;;;;;;;5049059;28;45770;-72
2022/04/23 13:12:21;;;;;;;;;13.75;11.50;;;;;;;;5051357;28;45417;-73
2022/04/23 13:14:46;;;;;;;;;14.50;11.75;;;;;;;;5038444;28;45299;-73
2022/04/23 13:17:12;;;;;;;;;15.75;14.75;;;;;;;;5049279;28;45263;-73
2022/04/23 13:19:37;;;;;;;;;11.75;11.25;;;;;;;;5052764;28;47426;-74
2022/04/23 13:22:02;;;;;;;;;13.75;11.25;;;;;;;;5045834;28;45454;-74
2022/04/23 13:24:28;;;;;;;;;11.50;11.50;;;;;;;;5041970;28;45351;-73
2022/04/23 13:26:53;;;;;;;;;10.00;10.00;;;;;;;;5047939;28;45455;-74
2022/04/23 13:29:18;;;;;;;;;8.75;8.75;;;;;;;;5038462;28;46027;-74
2022/04/23 13:31:43;;;;;;;;;11.25;8.75;;;;;;;;5049068;28;45344;-74
2022/04/23 13:34:08;;;;;;;;;11.25;10.25;;;;;;;;5044441;28;45313;-73
2022/04/23 13:36:34;;;;;;;;;10.75;9.00;;;;;;;;5043234;28;45370;-74
2022/04/23 13:38:59;;;;;;;;;12.25;10.75;;;;;;;;5048375;28;46763;-73
2022/04/23 13:41:24;;;;;;;;;10.50;8.75;;;;;;;;5044796;28;45418;-74
2022/04/23 13:43:49;;;;;;;;;9.25;9.25;;;;;;;;5049300;28;45515;-74
2022/04/23 13:46:15;;;;;;;;;17.50;17.50;;;;;;;;5051017;28;45471;-75
2022/04/23 13:48:40;;;;;;;;;12.25;10.75;;;;;;;;5047377;28;47005;-72
2022/04/23 13:51:05;;;;;;;;;8.00;8.00;;;;;;;;5036079;28;45475;-74
2022/04/23 13:53:31;;;;;;;;;6.00;5.75;;;;;;;;5051754;28;45744;-74
2022/04/23 13:55:56;;;;;;;;;6.75;6.00;;;;;;;;5052023;28;45477;-74
2022/04/23 13:58:21;;;;;;;;;6.50;6.50;;;;;;;;5042149;28;46154;-74
2022/04/23 14:00:46;;;;;;;;;7.00;7.00;;;;;;;;5034173;28;45372;-75
2022/04/23 14:11:23;;;;;;;;;8.50;7.50;;;;;;;;5050463;28;45334;-73
2022/04/23 14:13:51;;;;;;;;;6.00;6.00;;;;;;;;5048335;28;45490;-73
2022/04/23 14:16:16;;;;;;;;;11.25;7.25;;;;;;;;5047642;28;45330;-72
2022/04/23 14:18:41;;;;;;;;;4.00;4.00;;;;;;;;5047592;28;45555;-72
2022/04/23 14:21:07;;;;;;;;;5.00;5.00;;;;;;;;5049410;28;45424;-73
2022/04/23 14:23:33;;;;;;;;;5.00;5.00;;;;;;;;5032298;28;45351;-71
2022/04/23 14:25:58;;;;;;;;;3.75;3.00;;;;;;;;5053476;28;45398;-71
2022/04/23 14:28:23;;;;;;;;;5.75;5.25;;;;;;;;5051765;28;46048;-70
2022/04/23 14:30:50;;;;;;;;;8.00;6.50;;;;;;;;5052305;28;47829;-70
2022/04/23 14:33:15;;;;;;;;;4.00;2.75;;;;;;;;5051351;28;45475;-71
2022/04/23 14:35:40;;;;;;;;;3.25;3.25;;;;;;;;5052176;28;45679;-71
2022/04/23 14:38:06;;;;;;;;;4.50;2.25;;;;;;;;5053806;28;46598;-70
2022/04/23 14:40:31;;;;;;;;;1.50;1.50;;;;;;;;5051559;28;45449;-72
2022/04/23 14:42:58;;;;;;;;;3.50;2.00;;;;;;;;5051946;28;45564;-73
2022/04/23 14:45:28;;;;;;;;;2.00;2.00;;;;;;;;5052240;28;45429;-72
2022/04/23 14:47:53;;;;;;;;;4.00;3.50;;;;;;;;5051314;28;47365;-72
2022/04/23 14:50:18;;;;;;;;;6.75;5.75;;;;;;;;5053887;28;45330;-72
2022/04/23 14:55:27;;;;;;;;;5.50;4.00;;;;;;;;5052133;28;45352;-73
2022/04/23 14:57:53;;;;;;;;;5.75;5.25;;;;;;;;5051318;28;46985;-72
2022/04/23 15:00:18;;;;;;;;;4.00;4.00;;;;;;;;5051698;28;45453;-72
2022/04/23 15:02:44;;;;;;;;;3.75;3.00;;;;;;;;5050737;28;46158;-72